METAR AND TAF INFORMATION
METAR FOR KL35
ADDS - METARS form results

(1436 UTC 20 January 2019)
Data provider http://aviationweather.gov/metar/data/
 
METAR text: KL35 201415Z AUTO 26006KT 10SM CLR M03/M05 A3025 RMK AO2
Conditions at: KL35 (BIG BEAR CITY , CA, US) observed 1415 UTC 20 January 2019
Temperature: -3.0°C (27°F)
Dewpoint: -5.0°C (23°F) [RH = 86%]
Pressure (altimeter): 30.25 inches Hg (1024.5 mb)
Winds: from the W (260 degrees) at 7 MPH (6 knots; 3.1 m/s)
Visibility: 10 or more miles (16+ km)
Ceiling: at least 12,000 feet AGL
Clouds: sky clear below 12,000 feet AGL
Weather: automated observation with no human augmentation;
there may or may not be significant weather present at this time

METAR text: KL35 201355Z AUTO 26006KT 10SM CLR M03/M05 A3025 RMK AO2
Conditions at: KL35 (BIG BEAR CITY , CA, US) observed 1355 UTC 20 January 2019
Temperature: -3.0°C (27°F)
Dewpoint: -5.0°C (23°F) [RH = 86%]
Pressure (altimeter): 30.25 inches Hg (1024.5 mb)
Winds: from the W (260 degrees) at 7 MPH (6 knots; 3.1 m/s)
Visibility: 10 or more miles (16+ km)
Ceiling: at least 12,000 feet AGL
Clouds: sky clear below 12,000 feet AGL
Weather: automated observation with no human augmentation;
there may or may not be significant weather present at this time

 AIRPORT MAP

Esri Leaflet Quickstart
 RUNWAY INFORMATION
Runway 08 Runway length 5850 ft Runway width 75 ft
Runway elevation 6750 ft Runway displaced threshold 370 ft Runway heading 90
Runway 26 Runway length 5850 ft Runway width 75 ft
Runway elevation 6751 ft Runway displaced threshold 600 ft Runway heading 270

 AIRPORT FREQUENCIES
Type AWOS Name AWOS 3 Frequency 135.925 MHZ
Type CNTR Name LOS ANGELE Frequency 126.35 MHZ
Type UNIC Name CTAF/UNICO Frequency 122.725 MHZ

 AIRPORT NEAR NAVIGATION AIDS



Powered by Virtual Airlines Manager [v2.6.2]